Time;durP1;ratioP1;P1;durP2;ratioP2;P2;SDS_P1;SDS_P2;PMS_P1;PMS_P2;Temp;Humidity;BMP_temperature;BMP_pressure;BME280_temperature;BME280_humidity;BME280_pressure;Samples;Min_cycle;Max_cycle;Signal;HPM_P1;HPM_P2
2022/04/12 00:00:02;;;;;;;5.75;4.75;;;;;;;9.37;52.18;100745.72;6108085;23;20014;-74
2022/04/12 00:02:29;;;;;;;4.38;4.18;;;;;;;9.36;52.41;100729.19;6113499;23;20039;-77
2022/04/12 00:04:58;;;;;;;4.00;3.80;;;;;;;9.46;52.68;100734.84;6116278;23;20060;-73
2022/04/12 00:07:25;;;;;;;4.40;4.13;;;;;;;9.46;51.58;100732.22;6115770;23;20076;-76
2022/04/12 00:09:52;;;;;;;3.95;3.80;;;;;;;8.88;52.26;100633.66;6089161;23;21717;-73
2022/04/12 00:12:18;;;;;;;3.85;3.72;;;;;;;9.43;51.73;100737.59;6127045;23;20037;-74
2022/04/12 00:14:45;;;;;;;5.68;5.40;;;;;;;9.43;51.74;100724.50;6110780;23;20088;-75
2022/04/12 00:19:56;;;;;;;4.10;3.90;;;;;;;8.88;52.77;100648.50;6120221;23;20395;-75
2022/04/12 00:22:23;;;;;;;4.90;4.65;;;;;;;9.24;52.88;100721.03;6110978;23;20025;-73
2022/04/12 00:24:49;;;;;;;4.47;4.28;;;;;;;9.11;53.97;100707.66;6068395;23;20305;-74
2022/04/12 00:27:15;;;;;;;3.80;3.70;;;;;;;8.92;53.94;100694.53;6084873;23;20010;-75
2022/04/12 00:29:42;;;;;;;5.40;5.20;;;;;;;8.92;53.77;100684.06;6083771;23;20089;-74
2022/04/12 00:32:08;;;;;;;6.38;3.97;;;;;;;8.69;54.45;100651.13;6082714;23;20416;-72
2022/04/12 00:34:35;;;;;;;5.80;5.55;;;;;;;8.90;53.61;100678.06;6079779;23;20018;-72
2022/04/12 00:37:01;;;;;;;4.20;4.00;;;;;;;9.10;53.66;100701.59;6090329;23;20510;-74
2022/04/12 00:39:28;;;;;;;3.88;3.72;;;;;;;8.59;53.74;100611.44;6075588;23;20181;-76
2022/04/12 00:41:57;;;;;;;3.78;3.67;;;;;;;9.12;53.80;100691.88;6057851;23;20026;-75
2022/04/12 00:44:23;;;;;;;3.83;3.67;;;;;;;9.08;53.76;100699.94;6053171;23;20362;-71
2022/04/12 00:46:50;;;;;;;4.00;3.80;;;;;;;8.57;54.33;100618.50;6082212;23;20104;-74
2022/04/12 00:49:16;;;;;;;16.30;15.50;;;;;;;8.77;53.91;100668.16;6055985;23;20054;-78
2022/04/12 00:51:45;;;;;;;5.35;5.15;;;;;;;8.98;54.10;100707.38;5976319;23;20115;-73
2022/04/12 00:54:11;;;;;;;3.63;3.53;;;;;;;8.83;54.77;100687.97;6077837;23;20026;-73
2022/04/12 00:56:37;;;;;;;4.10;3.90;;;;;;;8.78;54.31;100675.09;6086855;23;20024;-72
2022/04/12 00:59:05;;;;;;;3.72;3.63;;;;;;;8.94;54.54;100705.78;6079141;23;20675;-73
2022/04/12 01:01:32;;;;;;;4.50;4.30;;;;;;;8.57;54.92;100649.88;6085146;23;20392;-75
2022/04/12 01:03:58;;;;;;;4.03;3.83;;;;;;;8.90;54.80;100694.63;6078627;23;20368;-73
2022/04/12 01:06:25;;;;;;;3.83;3.72;;;;;;;8.86;55.05;100687.84;6086470;23;20028;-73
2022/04/12 01:08:51;;;;;;;3.90;3.70;;;;;;;8.99;54.16;100696.81;6079915;23;20021;-75
2022/04/12 01:11:18;;;;;;;3.70;3.60;;;;;;;8.43;54.35;100605.19;6083474;23;20085;-72
2022/04/12 01:13:44;;;;;;;5.65;5.35;;;;;;;8.92;55.44;100689.31;6089112;23;20456;-74
2022/04/12 01:16:10;;;;;;;4.15;3.95;;;;;;;8.66;55.51;100659.09;6084189;23;20041;-69
2022/04/12 01:18:38;;;;;;;5.45;5.25;;;;;;;8.82;55.87;100693.25;6053947;23;20040;-68
2022/04/12 01:21:04;;;;;;;4.15;3.95;;;;;;;8.65;55.41;100675.72;6088041;23;21205;-68
2022/04/12 01:23:43;;;;;;;5.55;5.15;;;;;;;8.79;55.48;100695.09;6126696;23;20068;-70
2022/04/12 01:26:10;;;;;;;4.00;3.80;;;;;;;8.84;55.15;100680.97;6117845;23;20021;-70
2022/04/12 01:28:37;;;;;;;5.45;5.22;;;;;;;8.44;55.30;100617.34;6088192;23;20017;-70
2022/04/12 01:31:05;;;;;;;4.00;3.80;;;;;;;8.63;55.34;100639.16;6119337;23;20490;-71
2022/04/12 01:33:31;;;;;;;3.70;3.60;;;;;;;8.79;55.97;100686.41;6117566;23;20628;-70
2022/04/12 01:35:58;;;;;;;4.10;3.90;;;;;;;8.44;55.10;100591.19;6114915;23;20028;-70
2022/04/12 01:38:24;;;;;;;3.72;3.63;;;;;;;8.23;54.96;100567.69;6119715;23;20087;-69
2022/04/12 01:40:51;;;;;;;4.07;3.88;;;;;;;8.82;55.70;100648.78;6115497;23;20021;-70
2022/04/12 01:43:17;;;;;;;3.80;3.70;;;;;;;8.96;55.21;100659.44;6114475;23;20018;-70
2022/04/12 01:45:43;;;;;;;5.38;5.18;;;;;;;8.95;55.12;100650.75;6107806;23;20547;-70
2022/04/12 01:48:10;;;;;;;3.72;3.60;;;;;;;8.79;55.39;100641.91;6113385;23;20025;-69
2022/04/12 01:50:36;;;;;;;5.32;5.13;;;;;;;8.74;55.66;100626.44;6104307;23;20080;-70
2022/04/12 01:53:03;;;;;;;3.90;3.70;;;;;;;8.97;55.77;100655.94;6126155;23;20029;-70
2022/04/12 01:55:30;;;;;;;4.25;4.10;;;;;;;8.59;54.84;100575.66;6110461;23;20029;-69
2022/04/12 01:57:56;;;;;;;3.70;3.60;;;;;;;8.96;54.53;100622.81;6103485;23;20036;-70
2022/04/12 02:00:23;;;;;;;4.10;3.90;;;;;;;9.16;54.50;100651.53;6103692;23;20088;-70
2022/04/12 02:02:49;;;;;;;4.38;4.18;;;;;;;8.92;54.98;100609.03;6113992;23;20100;-70
2022/04/12 02:05:16;;;;;;;3.70;3.60;;;;;;;9.14;55.00;100661.25;6111191;23;20884;-70
2022/04/12 02:07:45;;;;;;;5.53;5.32;;;;;;;8.99;55.19;100631.38;6109380;23;20640;-71
2022/04/12 02:10:11;;;;;;;3.80;3.70;;;;;;;8.79;55.28;100577.34;6089231;23;20111;-69
2022/04/12 02:12:38;;;;;;;5.38;5.18;;;;;;;9.22;54.68;100646.94;6090450;23;20009;-70
2022/04/12 02:15:05;;;;;;;4.20;4.00;;;;;;;8.96;54.87;100591.41;6127352;23;20091;-70
2022/04/12 02:17:31;;;;;;;4.65;4.45;;;;;;;9.17;54.46;100627.03;6112125;23;20080;-69
2022/04/12 02:19:58;;;;;;;4.32;4.13;;;;;;;9.26;54.67;100641.50;6121216;23;20541;-70
2022/04/12 02:22:24;;;;;;;4.10;3.90;;;;;;;9.06;54.78;100605.78;6109450;23;20084;-69
2022/04/12 02:24:51;;;;;;;4.22;4.03;;;;;;;9.27;55.14;100637.94;6086885;23;20013;-70
2022/04/12 02:27:17;;;;;;;3.80;3.70;;;;;;;9.32;54.47;100642.94;6069910;23;20018;-70
2022/04/12 02:29:44;;;;;;;5.35;5.15;;;;;;;9.28;55.65;100650.13;6081367;23;20066;-70
2022/04/12 02:32:10;;;;;;;4.20;4.00;;;;;;;9.03;55.14;100608.53;6081254;23;20580;-69
2022/04/12 02:34:36;;;;;;;4.60;4.40;;;;;;;8.18;54.87;100463.31;6070546;23;20458;-70
2022/04/12 02:37:03;;;;;;;4.25;4.05;;;;;;;9.26;55.07;100653.72;6097176;23;20025;-70
2022/04/12 02:39:29;;;;;;;4.07;3.88;;;;;;;9.21;55.41;100643.47;6079302;23;20474;-69
2022/04/12 02:41:56;;;;;;;3.95;3.80;;;;;;;9.13;55.95;100632.50;6089577;23;20552;-70
2022/04/12 02:44:22;;;;;;;3.80;3.70;;;;;;;9.09;55.30;100630.97;6085500;23;20017;-69
2022/04/12 02:46:49;;;;;;;3.95;3.75;;;;;;;9.13;55.49;100658.69;6075622;23;20147;-70
2022/04/12 02:49:15;;;;;;;3.60;3.50;;;;;;;8.94;55.98;100627.28;6051492;23;20024;-70
2022/04/12 02:51:41;;;;;;;5.55;5.25;;;;;;;9.10;56.42;100654.47;6088568;23;20009;-70
2022/04/12 02:54:08;;;;;;;3.80;3.70;;;;;;;9.08;55.93;100658.03;6081524;23;20588;-69
2022/04/12 02:56:34;;;;;;;5.22;5.03;;;;;;;9.05;55.97;100656.41;6070358;23;20014;-69
2022/04/12 02:59:01;;;;;;;3.70;3.60;;;;;;;8.96;56.63;100660.31;6076486;23;20026;-70
2022/04/12 03:01:27;;;;;;;3.88;3.67;;;;;;;9.03;55.40;100649.56;6078523;23;20229;-69
2022/04/12 03:03:54;;;;;;;4.30;4.10;;;;;;;9.01;56.00;100631.31;6087168;23;20312;-70
2022/04/12 03:06:20;;;;;;;4.43;4.22;;;;;;;8.96;56.41;100618.44;6072138;23;20025;-70
2022/04/12 03:08:46;;;;;;;4.40;4.20;;;;;;;8.84;55.89;100587.63;6084587;23;20278;-70
2022/04/12 03:11:13;;;;;;;4.00;3.80;;;;;;;9.14;56.26;100626.34;6067611;23;20029;-70
2022/04/12 03:13:40;;;;;;;5.30;5.10;;;;;;;8.73;55.88;100563.72;6075015;23;20054;-70
2022/04/12 03:16:06;;;;;;;3.80;3.70;;;;;;;9.02;56.30;100617.31;6082471;23;20032;-70
2022/04/12 03:18:33;;;;;;;5.25;5.05;;;;;;;8.91;56.14;100580.31;6068519;23;20022;-70
2022/04/12 03:20:59;;;;;;;3.65;3.55;;;;;;;9.24;55.58;100626.75;6096946;23;20076;-70
2022/04/12 03:23:26;;;;;;;3.92;3.72;;;;;;;9.28;55.41;100630.91;6093220;23;20020;-69
2022/04/12 03:25:52;;;;;;;4.05;3.85;;;;;;;9.21;55.82;100635.59;6112729;23;21971;-69
2022/04/12 03:28:19;;;;;;;3.75;3.65;;;;;;;9.07;55.51;100597.00;6091569;23;20010;-70
2022/04/12 03:30:45;;;;;;;6.03;5.70;;;;;;;8.97;55.48;100569.56;6098988;23;20147;-69
2022/04/12 03:33:12;;;;;;;3.95;3.75;;;;;;;9.10;54.74;100599.47;6085639;23;20081;-70
2022/04/12 03:35:38;;;;;;;5.75;5.45;;;;;;;9.23;56.24;100618.06;6087583;23;20020;-73
2022/04/12 03:38:05;;;;;;;3.80;3.70;;;;;;;8.73;55.75;100540.16;6086441;23;20081;-74
2022/04/12 03:40:32;;;;;;;4.53;4.30;;;;;;;9.03;56.18;100605.91;6107194;23;20048;-75
2022/04/12 03:43:04;;;;;;;9.68;4.00;;;;;;;8.98;56.13;100587.81;6086052;23;20099;-73
2022/04/12 03:45:32;;;;;;;4.85;4.65;;;;;;;8.86;55.60;100548.28;6077622;23;20083;-72
2022/04/12 03:47:59;;;;;;;4.00;3.80;;;;;;;9.01;55.22;100552.78;6061249;23;20026;-76
2022/04/12 03:50:26;;;;;;;4.20;3.95;;;;;;;7.84;55.15;100372.56;6093797;23;20057;-73
2022/04/12 03:52:53;;;;;;;4.25;4.05;;;;;;;8.88;55.69;100536.84;6080023;23;20070;-74
2022/04/12 03:55:32;;;;;;;3.80;3.70;;;;;;;9.20;55.16;100586.78;6098095;23;20051;-73
2022/04/12 03:58:00;;;;;;;3.90;3.70;;;;;;;8.32;55.45;100456.63;6093352;23;20020;-74
2022/04/12 04:00:27;;;;;;;4.15;3.95;;;;;;;9.00;55.40;100566.81;6072196;23;20028;-75
2022/04/12 04:02:54;;;;;;;4.18;3.97;;;;;;;8.89;56.44;100558.59;6093052;23;20093;-72
2022/04/12 04:05:25;;;;;;;4.30;4.10;;;;;;;9.03;56.97;100591.97;6088725;23;20653;-75
2022/04/12 04:07:52;;;;;;;4.20;4.00;;;;;;;8.93;56.34;100604.66;6097032;23;20079;-75
2022/04/12 04:10:19;;;;;;;3.80;3.70;;;;;;;8.82;56.82;100596.44;6102908;23;20021;-76
2022/04/12 04:12:46;;;;;;;5.22;5.03;;;;;;;8.51;57.31;100559.47;6101730;23;20110;-74
2022/04/12 04:15:14;;;;;;;3.60;3.50;;;;;;;8.65;57.44;100594.63;6088708;23;20017;-75
2022/04/12 04:17:42;;;;;;;6.30;6.00;;;;;;;8.49;57.78;100591.84;6079241;23;20042;-74
2022/04/12 04:20:10;;;;;;;4.00;3.83;;;;;;;8.39;58.43;100580.91;6105925;23;20024;-74
2022/04/12 04:22:37;;;;;;;5.35;5.15;;;;;;;8.13;58.61;100540.25;6088004;23;20446;-74
2022/04/12 04:25:04;;;;;;;3.90;3.70;;;;;;;8.22;58.76;100550.31;6087029;23;20085;-72
2022/04/12 04:27:32;;;;;;;4.85;4.65;;;;;;;8.34;58.77;100573.28;6083852;23;20021;-73
2022/04/12 04:29:59;;;;;;;3.72;3.63;;;;;;;8.48;58.15;100603.22;6070182;23;20447;-75
2022/04/12 04:32:25;;;;;;;4.10;3.90;;;;;;;8.47;58.88;100599.75;6087424;23;20038;-74
2022/04/12 04:34:52;;;;;;;3.65;3.55;;;;;;;8.48;59.12;100597.97;6078717;23;20136;-76
2022/04/12 04:37:18;;;;;;;3.70;3.60;;;;;;;8.39;59.39;100605.28;6060450;23;20021;-73
2022/04/12 04:39:45;;;;;;;7.30;5.45;;;;;;;8.25;59.52;100607.69;6076142;23;20051;-74
2022/04/12 04:42:12;;;;;;;3.85;3.75;;;;;;;8.11;59.70;100584.75;6059653;23;20368;-75
2022/04/12 04:44:38;;;;;;;5.25;5.05;;;;;;;8.05;60.29;100582.41;6056095;23;20010;-72
2022/04/12 04:47:05;;;;;;;4.00;3.80;;;;;;;8.15;60.82;100617.69;6085346;23;20451;-74
2022/04/12 04:49:32;;;;;;;5.28;5.07;;;;;;;8.06;61.04;100601.53;6080368;23;20028;-71
2022/04/12 04:51:58;;;;;;;3.70;3.60;;;;;;;8.04;60.68;100592.91;6088560;23;20085;-73
2022/04/12 04:54:24;;;;;;;3.72;3.63;;;;;;;8.07;60.22;100603.25;6082640;23;20033;-73
2022/04/12 04:56:51;;;;;;;3.65;3.55;;;;;;;8.12;60.93;100612.59;6085470;23;20573;-74
2022/04/12 04:59:18;;;;;;;4.10;3.90;;;;;;;8.11;61.26;100592.59;6082780;23;20080;-73
2022/04/12 05:01:44;;;;;;;5.35;5.15;;;;;;;8.30;61.40;100631.00;6079151;23;20030;-75
2022/04/12 05:04:11;;;;;;;3.75;3.65;;;;;;;8.08;60.83;100608.44;6050308;23;20648;-72
2022/04/12 05:06:37;;;;;;;3.70;3.60;;;;;;;7.74;60.84;100549.78;6090955;23;20057;-73
2022/04/12 05:09:04;;;;;;;3.80;3.70;;;;;;;8.26;61.46;100614.63;6088290;23;20348;-72
2022/04/12 05:11:31;;;;;;;3.97;3.80;;;;;;;8.33;61.97;100642.16;6086936;23;20045;-77
2022/04/12 05:13:57;;;;;;;3.70;3.60;;;;;;;8.34;60.73;100630.81;6090227;23;20013;-75
2022/04/12 05:16:24;;;;;;;3.70;3.60;;;;;;;8.16;60.80;100584.56;6081920;23;20379;-72
2022/04/12 05:18:53;;;;;;;3.83;3.72;;;;;;;7.77;61.46;100512.22;6082402;23;20014;-74
2022/04/12 05:21:20;;;;;;;3.80;3.70;;;;;;;8.07;60.82;100545.75;6089293;23;20057;-73
2022/04/12 05:23:46;;;;;;;4.90;4.70;;;;;;;8.46;61.21;100612.88;6129762;23;20023;-73
2022/04/12 05:26:13;;;;;;;4.10;3.90;;;;;;;8.34;61.41;100590.75;6126568;23;20051;-74
2022/04/12 05:28:44;;;;;;;5.25;5.05;;;;;;;8.51;61.46;100616.16;6112351;23;20017;-75
2022/04/12 05:31:10;;;;;;;3.70;3.60;;;;;;;8.59;61.04;100619.28;6106262;23;20076;-76
2022/04/12 05:33:37;;;;;;;5.53;5.25;;;;;;;8.46;60.78;100598.06;6115092;23;20029;-73
2022/04/12 05:36:04;;;;;;;3.80;3.70;;;;;;;8.68;61.47;100621.50;6099646;23;20029;-73
2022/04/12 05:38:30;;;;;;;4.30;4.15;;;;;;;8.76;61.15;100616.75;6111095;23;20080;-76
2022/04/12 05:40:56;;;;;;;3.70;3.60;;;;;;;8.78;60.52;100625.38;6112746;23;20025;-74
2022/04/12 05:43:23;;;;;;;4.00;3.80;;;;;;;8.82;60.09;100620.88;6116811;23;20010;-73
2022/04/12 05:45:49;;;;;;;4.00;3.80;;;;;;;8.99;60.21;100626.13;6113852;23;20359;-72
2022/04/12 05:48:16;;;;;;;4.03;3.83;;;;;;;9.19;59.12;100627.81;6118065;23;20005;-73
2022/04/12 05:50:42;;;;;;;6.10;5.80;;;;;;;9.39;59.05;100631.25;6122612;23;20032;-67
2022/04/12 05:53:09;;;;;;;4.20;4.00;;;;;;;9.18;58.56;100586.88;6109117;23;20619;-74
2022/04/12 05:55:35;;;;;;;5.72;5.45;;;;;;;9.07;58.64;100581.28;6112372;23;20018;-75
2022/04/12 05:58:05;;;;;;;9.23;4.40;;;;;;;9.14;57.92;100598.41;6128104;23;20096;-76
2022/04/12 06:00:34;;;;;;;5.50;5.30;;;;;;;9.41;57.80;100646.91;6098759;23;20078;-73
2022/04/12 06:03:02;;;;;;;4.20;4.00;;;;;;;9.50;57.41;100649.94;6089152;23;20033;-73
2022/04/12 06:05:32;;;;;;;4.70;4.50;;;;;;;8.83;57.84;100541.41;6104389;23;20025;-75
2022/04/12 06:07:59;;;;;;;4.38;4.18;;;;;;;9.42;57.85;100612.78;6107038;23;20027;-74
2022/04/12 06:10:26;;;;;;;4.18;3.97;;;;;;;9.72;57.42;100656.72;6121934;23;20087;-73
2022/04/12 06:12:58;;;;;;;4.20;4.00;;;;;;;9.70;56.58;100620.13;6114234;23;20021;-76
2022/04/12 06:15:24;;;;;;;4.40;4.20;;;;;;;9.92;56.35;100655.75;6104085;23;20599;-72
2022/04/12 06:17:51;;;;;;;4.80;4.25;;;;;;;9.97;56.82;100648.50;6109790;23;20112;-78
2022/04/12 06:20:21;;;;;;;4.10;3.90;;;;;;;9.94;56.05;100617.19;6107844;23;20025;-73
2022/04/12 06:22:47;;;;;;;4.40;4.20;;;;;;;10.25;55.51;100644.47;6109619;23;20017;-74
2022/04/12 06:25:19;;;;;;;4.10;3.90;;;;;;;10.36;55.34;100647.41;6098072;23;20133;-72
2022/04/12 06:27:50;;;;;;;5.43;5.22;;;;;;;9.54;54.50;100490.81;6080087;23;20050;-73
2022/04/12 06:30:22;;;;;;;4.53;4.32;;;;;;;10.47;54.26;100641.63;6081079;23;20017;-73
2022/04/12 06:32:49;;;;;;;5.63;5.43;;;;;;;10.64;53.64;100648.59;6094805;23;20407;-73
2022/04/12 06:35:16;;;;;;;4.00;3.80;;;;;;;10.70;53.87;100643.00;6084343;23;20034;-71
2022/04/12 06:37:46;;;;;;;4.10;3.90;;;;;;;10.67;53.24;100620.41;6071287;23;20373;-72
2022/04/12 06:40:15;;;;;;;4.60;4.40;;;;;;;10.88;53.15;100641.16;6107236;23;20009;-72
2022/04/12 06:42:44;;;;;;;4.40;4.20;;;;;;;10.86;52.80;100622.84;6079083;23;20024;-72
2022/04/12 06:45:11;;;;;;;7.07;6.78;;;;;;;10.85;52.04;100617.72;6102684;23;20110;-74
2022/04/12 06:47:39;;;;;;;4.70;4.40;;;;;;;11.06;52.16;100634.91;6078490;23;20030;-70
2022/04/12 06:50:08;;;;;;;6.07;5.78;;;;;;;11.15;52.33;100631.78;6078926;23;20482;-70
2022/04/12 06:52:34;;;;;;;4.63;4.32;;;;;;;11.12;51.87;100654.72;6111859;23;20024;-70
2022/04/12 06:55:01;;;;;;;5.57;5.38;;;;;;;11.14;51.81;100630.06;6047863;23;20025;-70
2022/04/12 06:57:32;;;;;;;4.75;4.55;;;;;;;11.11;51.54;100629.41;6113792;23;20013;-70
2022/04/12 06:59:58;;;;;;;5.93;5.65;;;;;;;11.26;51.37;100641.66;6074207;23;20364;-71
2022/04/12 07:02:25;;;;;;;4.68;4.47;;;;;;;11.34;51.86;100636.81;6108641;23;20028;-70
2022/04/12 07:04:51;;;;;;;4.32;4.13;;;;;;;11.14;51.24;100605.59;6081106;23;20017;-70
2022/04/12 07:07:18;;;;;;;4.45;4.25;;;;;;;11.15;51.50;100575.78;6084424;23;20025;-70
2022/04/12 07:09:44;;;;;;;4.38;4.18;;;;;;;11.44;51.24;100618.75;6084365;23;20018;-70
2022/04/12 07:12:10;;;;;;;5.35;5.15;;;;;;;11.59;50.87;100630.19;6107162;23;20029;-70
2022/04/12 07:14:37;;;;;;;4.60;4.40;;;;;;;11.78;51.12;100636.06;6049677;23;20427;-70
2022/04/12 07:17:05;;;;;;;5.95;5.65;;;;;;;11.50;51.00;100563.22;6113030;23;20398;-70
2022/04/12 07:19:31;;;;;;;4.60;4.40;;;;;;;12.06;49.64;100633.63;6057011;23;20010;-70
2022/04/12 07:21:58;;;;;;;5.97;5.68;;;;;;;12.09;49.92;100601.91;6116678;23;20005;-70
2022/04/12 07:24:25;;;;;;;4.53;4.32;;;;;;;12.28;49.38;100620.88;6099685;23;20364;-73
2022/04/12 07:26:52;;;;;;;4.65;4.45;;;;;;;12.21;48.68;100616.06;6086326;23;20033;-69
2022/04/12 07:29:18;;;;;;;4.50;4.30;;;;;;;12.21;48.90;100618.72;6087302;23;20036;-72
2022/04/12 07:31:45;;;;;;;4.97;4.50;;;;;;;11.24;49.08;100443.06;6084288;23;20113;-71
2022/04/12 07:34:11;;;;;;;4.30;4.10;;;;;;;12.31;48.39;100617.25;6085223;23;20017;-70
2022/04/12 07:36:43;;;;;;;4.60;4.40;;;;;;;12.58;48.60;100619.94;6093024;23;20103;-70
2022/04/12 07:39:16;;;;;;;4.40;4.20;;;;;;;12.38;48.41;100569.38;6090394;23;20029;-73
2022/04/12 07:41:43;;;;;;;4.72;4.53;;;;;;;12.68;47.81;100593.91;6097006;23;20494;-72
2022/04/12 07:44:09;;;;;;;5.88;5.57;;;;;;;13.14;47.14;100625.22;6083023;23;20055;-74
2022/04/12 07:46:36;;;;;;;4.50;4.30;;;;;;;13.27;47.85;100620.00;6089805;23;20009;-74
2022/04/12 07:49:02;;;;;;;6.05;5.75;;;;;;;13.08;46.88;100563.22;6125011;23;20028;-73
2022/04/12 07:51:28;;;;;;;4.30;4.10;;;;;;;13.43;47.17;100617.25;6093841;23;20022;-73
2022/04/12 07:53:55;;;;;;;6.00;5.72;;;;;;;13.63;47.04;100626.47;6112971;23;20364;-71
2022/04/12 07:56:22;;;;;;;4.78;4.55;;;;;;;13.47;45.47;100580.06;6088490;23;20097;-74
2022/04/12 07:58:48;;;;;;;4.68;4.47;;;;;;;13.85;44.38;100618.84;6097108;23;20025;-74
2022/04/12 08:01:14;;;;;;;4.40;4.20;;;;;;;13.80;45.55;100599.84;6087202;23;20510;-71
2022/04/12 08:03:41;;;;;;;4.70;4.50;;;;;;;13.91;45.51;100585.91;6116254;23;20098;-71
2022/04/12 08:06:08;;;;;;;6.13;5.82;;;;;;;14.27;45.34;100616.88;6078639;23;20046;-72
2022/04/12 08:08:35;;;;;;;4.97;4.78;;;;;;;14.15;44.93;100567.56;6064791;23;20178;-73
2022/04/12 08:11:02;;;;;;;6.00;5.70;;;;;;;14.31;44.69;100577.88;6082622;23;20214;-74
2022/04/12 08:13:31;;;;;;;5.20;5.00;;;;;;;14.15;44.08;100564.91;6116406;23;20343;-71
2022/04/12 08:15:58;;;;;;;5.82;5.55;;;;;;;14.23;43.78;100578.44;6085772;23;20395;-72
2022/04/12 08:18:24;;;;;;;4.55;4.35;;;;;;;14.55;44.21;100605.25;6117331;23;20027;-72
2022/04/12 08:20:51;;;;;;;4.75;4.55;;;;;;;14.60;44.45;100591.72;6087527;23;20315;-71
2022/04/12 08:23:21;;;;;;;4.50;4.30;;;;;;;14.72;43.81;100616.44;6114747;23;20059;-71
2022/04/12 08:25:48;;;;;;;4.93;4.63;;;;;;;14.87;44.33;100612.69;6091789;23;20474;-71
2022/04/12 08:28:15;;;;;;;4.85;4.65;;;;;;;14.64;42.25;100601.13;6090205;23;20415;-71
2022/04/12 08:30:41;;;;;;;4.60;4.40;;;;;;;14.91;43.27;100610.66;6058786;23;20100;-72
2022/04/12 08:33:08;;;;;;;5.95;5.65;;;;;;;14.65;43.39;100586.13;6083078;23;20010;-72
2022/04/12 08:35:34;;;;;;;4.60;4.40;;;;;;;14.77;43.73;100587.88;6118091;23;20347;-72
2022/04/12 08:38:01;;;;;;;6.15;5.85;;;;;;;14.75;42.67;100579.22;6090398;23;20548;-72
2022/04/12 08:40:27;;;;;;;4.75;4.55;;;;;;;15.02;43.27;100615.19;6088117;23;20014;-72
2022/04/12 08:42:56;;;;;;;5.53;5.28;;;;;;;15.10;43.42;100595.19;6085974;23;20030;-71
2022/04/12 08:45:24;;;;;;;5.00;4.80;;;;;;;14.73;42.74;100537.09;6094914;23;20010;-71
2022/04/12 08:47:51;;;;;;;4.60;4.40;;;;;;;15.33;42.20;100590.00;6055123;23;20243;-69
2022/04/12 08:50:19;;;;;;;5.00;4.80;;;;;;;15.64;43.33;100598.31;6113987;23;20023;-69
2022/04/12 08:52:47;;;;;;;5.32;5.07;;;;;;;15.69;43.21;100582.91;6079135;23;20356;-69
2022/04/12 08:55:13;;;;;;;4.80;4.60;;;;;;;15.98;42.70;100598.44;6107518;23;20466;-70
2022/04/12 08:57:40;;;;;;;5.18;4.88;;;;;;;15.69;41.31;100548.53;6089876;23;20034;-70
2022/04/12 09:00:07;;;;;;;6.03;5.72;;;;;;;16.06;40.58;100611.91;6056150;23;20059;-72
2022/04/12 09:02:34;;;;;;;5.10;4.70;;;;;;;16.13;41.00;100595.41;6094352;23;20498;-70
2022/04/12 09:05:00;;;;;;;6.03;5.72;;;;;;;16.11;40.68;100601.81;6080362;23;20025;-70
2022/04/12 09:07:28;;;;;;;4.70;4.50;;;;;;;16.37;40.52;100594.47;6084466;23;20429;-70
2022/04/12 09:10:06;;;;;;;5.82;5.55;;;;;;;16.58;40.54;100589.31;6116065;23;20497;-70
2022/04/12 09:12:34;;;;;;;6.45;4.72;;;;;;;15.99;40.29;100442.13;6083517;23;20073;-70
2022/04/12 09:15:02;;;;;;;6.32;6.03;;;;;;;16.93;39.22;100589.16;6108823;23;20036;-70
2022/04/12 09:17:34;;;;;;;4.80;4.60;;;;;;;16.81;39.88;100563.66;6099232;23;20170;-70
2022/04/12 09:20:01;;;;;;;6.47;6.18;;;;;;;16.72;39.59;100551.13;6103361;23;20080;-72
2022/04/12 09:22:28;;;;;;;5.05;4.80;;;;;;;17.04;38.70;100590.97;6084306;23;20073;-70
2022/04/12 09:24:58;;;;;;;5.82;5.55;;;;;;;17.17;39.56;100579.34;6108775;23;20119;-70
2022/04/12 09:27:30;;;;;;;5.10;4.90;;;;;;;17.44;39.27;100585.03;6083915;23;20563;-70
2022/04/12 09:30:02;;;;;;;7.00;6.60;;;;;;;17.35;39.45;100546.84;6088639;23;20478;-72
2022/04/12 09:32:34;;;;;;;5.07;4.88;;;;;;;17.67;38.20;100587.59;6085591;23;20085;-70
2022/04/12 09:35:00;;;;;;;6.35;6.05;;;;;;;17.65;38.58;100578.91;6078627;23;20016;-70
2022/04/12 09:37:29;;;;;;;4.80;4.60;;;;;;;17.62;38.02;100556.13;6060346;23;20014;-70
2022/04/12 09:39:58;;;;;;;6.15;5.88;;;;;;;17.79;38.39;100570.63;6081367;23;20025;-70
2022/04/12 09:42:48;;;;;;;5.00;4.80;;;;;;;17.76;39.07;100568.25;6087240;23;20030;-70
2022/04/12 09:45:16;;;;;;;5.43;5.13;;;;;;;17.93;38.96;100567.66;6076155;23;20042;-70
2022/04/12 09:47:44;;;;;;;5.07;4.88;;;;;;;17.97;37.54;100565.59;6095786;23;20018;-70
2022/04/12 09:50:32;;;;;;;4.93;4.72;;;;;;;18.00;38.32;100568.00;6112418;23;20059;-70
2022/04/12 09:53:06;;;;;;;7.18;6.85;;;;;;;17.63;37.82;100499.41;6080451;23;20057;-70
2022/04/12 09:55:38;;;;;;;5.10;4.90;;;;;;;17.90;38.41;100532.56;6094077;23;20041;-73
2022/04/12 09:58:18;;;;;;;6.00;5.70;;;;;;;18.19;37.57;100559.28;6088418;23;20030;-73
2022/04/12 10:00:47;;;;;;;5.07;4.88;;;;;;;18.36;37.93;100556.97;6094928;23;20021;-71
2022/04/12 10:03:17;;;;;;;4.90;4.70;;;;;;;18.22;36.60;100553.72;6076763;23;20090;-70
2022/04/12 10:05:44;;;;;;;5.40;5.20;;;;;;;17.94;37.37;100550.78;6104193;23;20033;-70
2022/04/12 10:08:14;;;;;;;6.10;5.80;;;;;;;18.04;37.03;100549.97;6086498;23;20236;-71
2022/04/12 10:10:45;;;;;;;4.95;4.75;;;;;;;18.37;37.53;100540.88;6087560;23;20229;-71
2022/04/12 10:13:14;;;;;;;5.35;5.10;;;;;;;18.71;35.98;100541.41;6075914;23;20496;-70
2022/04/12 10:15:41;;;;;;;5.15;4.90;;;;;;;18.60;34.75;100509.63;6056640;23;20014;-71
2022/04/12 10:18:08;;;;;;;6.60;6.30;;;;;;;18.86;35.53;100494.03;6110516;23;20029;-70
2022/04/12 10:20:35;;;;;;;4.90;4.70;;;;;;;19.17;34.20;100539.13;6074832;23;20017;-70
2022/04/12 10:23:02;;;;;;;6.97;6.65;;;;;;;19.03;34.77;100510.28;6096159;23;20017;-70
2022/04/12 10:25:28;;;;;;;5.28;5.07;;;;;;;18.95;34.51;100510.97;6095843;23;20491;-71
2022/04/12 10:28:03;;;;;;;6.15;5.85;;;;;;;19.40;34.46;100533.50;6094437;23;20036;-72
2022/04/12 10:30:32;;;;;;;5.10;4.90;;;;;;;19.37;34.08;100539.97;6093829;23;20470;-71
2022/04/12 10:33:04;;;;;;;6.28;5.97;;;;;;;19.33;34.06;100525.25;6060928;23;20022;-71
2022/04/12 10:35:46;;;;;;;5.20;5.00;;;;;;;19.52;34.41;100537.69;6083552;23;20097;-71
2022/04/12 10:38:17;;;;;;;5.45;5.07;;;;;;;19.32;34.21;100526.22;6084960;23;20016;-71
2022/04/12 10:40:46;;;;;;;5.00;4.80;;;;;;;19.45;34.53;100521.47;6084151;23;20467;-71
2022/04/12 10:43:14;;;;;;;5.72;5.22;;;;;;;19.38;34.97;100477.75;6082659;23;20354;-71
2022/04/12 10:45:46;;;;;;;5.40;5.10;;;;;;;19.30;34.70;100473.16;6073972;23;20026;-70
2022/04/12 10:48:24;;;;;;;5.88;5.43;;;;;;;19.50;34.22;100475.78;6094017;23;20012;-70
2022/04/12 10:50:56;;;;;;;5.30;5.10;;;;;;;19.47;33.81;100500.03;6071185;23;20454;-71
2022/04/12 10:53:38;;;;;;;5.93;5.57;;;;;;;19.91;34.52;100530.50;6066852;23;20988;-70
2022/04/12 10:56:08;;;;;;;6.17;5.87;;;;;;;18.73;33.55;100324.13;6080276;23;20025;-70
2022/04/12 10:58:35;;;;;;;5.40;5.20;;;;;;;19.46;33.82;100445.94;6074437;23;20045;-70
2022/04/12 11:01:04;;;;;;;6.03;5.72;;;;;;;19.68;34.49;100466.06;6083629;23;20479;-70
2022/04/12 11:03:45;;;;;;;5.90;5.60;;;;;;;20.03;34.28;100501.03;6058680;23;20322;-71
2022/04/12 11:06:26;;;;;;;7.05;6.75;;;;;;;20.30;34.03;100498.34;6076032;23;20415;-71
2022/04/12 11:08:55;;;;;;;5.97;5.68;;;;;;;20.15;33.59;100433.25;6053383;23;20010;-71
2022/04/12 11:11:22;;;;;;;5.68;5.40;;;;;;;20.59;32.58;100502.75;6082607;23;20029;-71
2022/04/12 11:13:49;;;;;;;5.80;5.50;;;;;;;20.80;33.57;100486.44;6075353;23;20014;-71
2022/04/12 11:16:24;;;;;;;7.00;6.70;;;;;;;20.78;33.25;100442.25;6025216;23;20454;-71
2022/04/12 11:18:55;;;;;;;5.55;5.35;;;;;;;21.01;32.69;100434.63;6074656;23;20701;-71
2022/04/12 11:21:24;;;;;;;5.68;5.43;;;;;;;21.20;32.32;100444.28;6071471;23;20360;-71
2022/04/12 11:23:52;;;;;;;5.90;5.60;;;;;;;21.29;32.84;100454.03;6106037;23;20017;-71
2022/04/12 11:26:35;;;;;;;6.97;6.68;;;;;;;21.42;31.50;100474.97;6107157;23;20089;-70
2022/04/12 11:29:06;;;;;;;5.85;5.55;;;;;;;21.32;32.46;100443.03;6103442;23;20013;-70
2022/04/12 11:31:36;;;;;;;5.40;5.20;;;;;;;21.36;31.57;100470.25;6101316;23;20028;-70
2022/04/12 11:34:05;;;;;;;5.85;5.57;;;;;;;20.90;31.84;100337.81;6104993;23;20350;-71